Flight Track Log - Related Links

Times and Time Zones

All times are in EDT time to prevent confusion due to time zone crossing. See the KAP305 flight status page for this flight to view local times or setup timezone preferences in your user account.

Time Position Orientation Groundspeed Altitude Reporting Facility
EDT Latitude Longitude Course Direction KTS MPH feet Rate Location/Type
Tue 07:53:06 AM 42.7489 -73.7831 78° East 120 138 1,000  Level Boston Center
Tue 07:53:24 AM 42.7511 -73.7689 78° East 117 135 1,500 1,063 Climbing Boston Center
Tue 07:54:25 AM 42.7536 -73.7294 85° East 106 122 2,400 793 Climbing Boston Center
Tue 07:55:25 AM 42.7583 -73.6842 82° East 124 143 3,100 694 Climbing Boston Center
Tue 07:56:26 AM 42.7611 -73.6306 86° East 145 167 3,800 787 Climbing Boston Center
Tue 07:57:27 AM 42.7636 -73.5683 87° East 155 178 4,700 793 Climbing Boston Center
Tue 07:58:27 AM 42.7683 -73.5092 84° East 156 180 5,400 756 Climbing Boston Center
Tue 07:59:34 AM 42.7711 -73.4469 86° East 159 183 6,300 758 Climbing Boston Center
Tue 08:00:02 AM 42.7733 -73.4131 85° East 156 180 6,600 735 Climbing Boston Center
Tue 08:00:23 AM 42.7756 -73.3961 80° East 158 182 6,900 400 Climbing Boston Center
Tue 08:01:02 AM 42.7781 -73.3622 84° East 176 203 7,000 108 Climbing Boston Center
Tue 08:02:14 AM 42.7642 -73.2886 104° East 182 209 7,100  Climbing Boston Center
Tue 08:03:14 AM 42.7481 -73.2064 105° East 182 209 7,000 -50 Descending Boston Center
Tue 08:04:14 AM 42.7400 -73.1467 100° East 182 209 7,000  Level Boston Center
Tue 08:05:14 AM 42.7258 -73.0703 104° East 182 209 7,000  Level Boston Center
Tue 08:06:14 AM 42.7158 -73.0081 102° East 182 209 7,000  Level Boston Center
Tue 08:07:14 AM 42.7056 -72.9403 102° East 182 209 7,000  Level Boston Center
Tue 08:08:14 AM 42.6933 -72.8722 104° East 182 209 7,000  Level Boston Center
Tue 08:09:14 AM 42.6792 -72.8044 106° East 182 209 7,000  Level Boston Center
Tue 08:10:14 AM 42.6647 -72.7281 104° East 182 209 7,000  Level Boston Center
Tue 08:11:14 AM 42.6544 -72.6631 102° East 182 209 7,000  Level Boston Center
Tue 08:12:14 AM 42.6419 -72.5953 104° East 182 209 7,000  Level Boston Center
Tue 08:13:14 AM 42.6317 -72.5192 100° East 182 209 7,000  Level Boston Center
Tue 08:14:14 AM 42.6192 -72.4514 104° East 182 209 7,000  Level Boston Center
Tue 08:15:14 AM 42.6067 -72.3781 103° East 182 209 7,000  Level Boston Center
Tue 08:16:14 AM 42.5961 -72.3103 102° East 182 209 7,000  Level Boston Center
Tue 08:17:14 AM 42.5836 -72.2369 103° East 194 223 7,000  Level Boston Center
Tue 08:18:14 AM 42.5731 -72.1667 102° East 189 217 7,000  Level Boston Center
Tue 08:19:14 AM 42.5625 -72.0989 102° East 189 217 7,000  Level Boston Center
Tue 08:20:14 AM 42.5517 -72.0286 102° East 183 211 7,000  Level Boston Center
Tue 08:21:14 AM 42.5411 -71.9583 101° East 183 211 7,000  Level Boston Center
Tue 08:22:14 AM 42.5303 -71.8906 102° East 183 211 7,000  Level Boston Center
Tue 08:23:14 AM 42.5239 -71.8203 97° East 183 211 7,000  Level Boston Center
Tue 08:24:14 AM 42.5131 -71.7528 102° East 183 211 7,000  Level Boston Center
Tue 08:25:14 AM 42.5083 -71.6825 95° East 183 211 7,000  Level Boston Center
Tue 08:26:14 AM 42.5017 -71.6122 97° East 183 211 7,000  Level Boston Center
Tue 08:27:14 AM 42.4969 -71.5447 95° East 183 211 7,000  Level Boston Center
Tue 08:28:14 AM 42.4900 -71.4744 98° East 183 211 7,000 -400 Level Boston Center
Tue 08:29:14 AM 42.4831 -71.3956 97° East 193 222 6,200 -650 Descending Boston Center
Tue 08:30:14 AM 42.4783 -71.3225 95° East 198 228 5,700 -610 Descending Boston Center
Tue 08:31:12 AM 42.4667 -71.2500 102° East 201 231 5,000 -356 Descending KA90
Tue 08:32:12 AM 42.4500 -71.2000 114° Southeast 172 198 5,000  Level KA90
Tue 08:33:18 AM 42.4000 -71.1500 144° Southeast 167 192 5,000  Level KA90
Tue 08:34:14 AM 42.3678 -71.1361 162° South 166 191 5,000 -362 Level Boston Center
Tue 08:35:14 AM 42.3264 -71.1539 198° South 152 175 4,300 -685 Descending Boston Center
Tue 08:37:18 AM 42.2333 -71.1667 186° South 172 198 2,900 -640 Descending KA90
Tue 08:38:12 AM 42.2000 -71.1167 132° Southeast 184 212 2,400 -500 Descending KA90
Tue 08:39:06 AM 42.2333 -71.0667 48° Northeast 189 217 2,000 -211 Descending KA90
Tue 08:40:06 AM 42.2667 -71.0500 20° North 166 191 2,000 -300 Level KA90
Tue 08:41:06 AM 42.3167 -71.0333 14° North 146 168 1,400 -850 Descending KA90
Tue 08:42:06 AM 42.3500 -71.0167 20° North 136 157 300 -1,100 Descending KA90
Tue 08:44:00 AM 42.3630 -71.0064 31° Northeast  Level Estimated

Login

Don't have an account? Register now (free) for customized features, flight alerts, and more!